createdAt,value
2023-09-15T00:00:44.380Z,100.00
2023-09-15T00:03:12.455Z,100.00
2023-09-15T00:05:39.197Z,100.00
2023-09-15T00:08:06.790Z,100.00
2023-09-15T00:10:39.604Z,100.00
2023-09-15T00:13:06.416Z,100.00
2023-09-15T00:15:33.496Z,100.00
2023-09-15T00:18:00.405Z,100.00
2023-09-15T00:20:26.913Z,100.00
2023-09-15T00:22:55.311Z,100.00
2023-09-15T00:25:27.462Z,100.00
2023-09-15T00:27:58.709Z,100.00
2023-09-15T00:30:26.587Z,100.00
2023-09-15T00:32:53.986Z,100.00
2023-09-15T00:35:24.128Z,100.00
2023-09-15T00:37:52.026Z,100.00
2023-09-15T00:40:20.982Z,100.00
2023-09-15T00:42:49.081Z,100.00
2023-09-15T00:45:16.898Z,100.00
2023-09-15T00:47:47.432Z,100.00
2023-09-15T00:50:21.187Z,100.00
2023-09-15T00:52:52.580Z,100.00
2023-09-15T00:55:23.027Z,100.00
2023-09-15T00:57:55.762Z,100.00
2023-09-15T01:00:23.199Z,100.00
2023-09-15T01:02:51.035Z,100.00
2023-09-15T01:05:24.712Z,100.00
2023-09-15T01:07:54.010Z,100.00
2023-09-15T01:10:21.796Z,100.00
2023-09-15T01:12:50.422Z,100.00
2023-09-15T01:15:20.814Z,100.00
2023-09-15T01:18:08.433Z,100.00
2023-09-15T01:20:49.895Z,100.00
2023-09-15T01:23:38.181Z,100.00
2023-09-15T01:26:16.734Z,100.00
2023-09-15T01:29:06.361Z,100.00
2023-09-15T01:31:34.892Z,100.00
2023-09-15T01:34:01.914Z,100.00
2023-09-15T01:36:28.409Z,100.00
2023-09-15T01:38:54.855Z,100.00
2023-09-15T01:41:21.594Z,100.00
2023-09-15T01:43:48.093Z,100.00
2023-09-15T01:46:14.671Z,100.00
2023-09-15T01:48:41.844Z,100.00
2023-09-15T01:51:09.777Z,100.00
2023-09-15T01:53:37.682Z,100.00
2023-09-15T01:56:04.290Z,100.00
2023-09-15T01:58:30.707Z,100.00
2023-09-15T02:00:57.270Z,100.00
2023-09-15T02:03:23.882Z,100.00
2023-09-15T02:05:50.432Z,100.00
2023-09-15T02:08:16.856Z,100.00
2023-09-15T02:10:43.245Z,100.00
2023-09-15T02:13:09.839Z,100.00
2023-09-15T02:15:36.366Z,100.00
2023-09-15T02:18:03.009Z,100.00
2023-09-15T02:20:30.034Z,100.00
2023-09-15T02:22:58.197Z,100.00
2023-09-15T02:25:24.747Z,100.00
2023-09-15T02:27:51.238Z,100.00
2023-09-15T02:30:17.666Z,100.00
2023-09-15T02:32:45.731Z,100.00
2023-09-15T02:35:12.329Z,100.00
2023-09-15T02:37:38.804Z,100.00
2023-09-15T02:40:06.545Z,100.00
2023-09-15T02:42:34.735Z,100.00
2023-09-15T02:45:01.187Z,100.00
2023-09-15T02:47:30.023Z,100.00
2023-09-15T02:49:56.527Z,100.00
2023-09-15T02:52:22.949Z,100.00
2023-09-15T02:54:49.705Z,100.00
2023-09-15T02:57:16.165Z,100.00
2023-09-15T02:59:42.581Z,100.00
2023-09-15T03:02:13.705Z,100.00
2023-09-15T03:04:41.068Z,100.00
2023-09-15T03:07:08.063Z,100.00
2023-09-15T03:09:34.795Z,100.00
2023-09-15T03:12:01.333Z,100.00
2023-09-15T03:14:27.803Z,100.00
2023-09-15T03:16:54.759Z,100.00
2023-09-15T03:19:22.714Z,100.00
2023-09-15T03:21:49.247Z,100.00
2023-09-15T03:24:15.698Z,100.00
2023-09-15T03:26:42.182Z,100.00
2023-09-15T03:29:09.090Z,100.00
2023-09-15T03:31:35.602Z,100.00
2023-09-15T03:34:02.163Z,100.00
2023-09-15T03:36:30.139Z,100.00
2023-09-15T03:38:57.438Z,100.00
2023-09-15T03:41:27.058Z,100.00
2023-09-15T03:43:53.470Z,100.00
2023-09-15T03:46:20.063Z,100.00
2023-09-15T03:48:46.793Z,100.00
2023-09-15T03:51:13.450Z,100.00
2023-09-15T03:53:39.910Z,100.00
2023-09-15T03:56:06.503Z,100.00
2023-09-15T03:58:36.229Z,100.00
2023-09-15T04:01:04.328Z,100.00
2023-09-15T04:03:30.908Z,100.00
2023-09-15T04:05:57.347Z,100.00
2023-09-15T04:08:23.790Z,100.00
2023-09-15T04:10:50.240Z,100.00
2023-09-15T04:13:16.732Z,100.00
2023-09-15T04:15:43.259Z,100.00
2023-09-15T04:18:12.814Z,100.00
2023-09-15T04:20:45.989Z,100.00
2023-09-15T04:23:13.441Z,100.00
2023-09-15T04:25:39.837Z,100.00
2023-09-15T04:28:06.362Z,100.00
2023-09-15T04:30:32.825Z,100.00
2023-09-15T04:33:01.065Z,100.00
2023-09-15T04:35:28.743Z,100.00
2023-09-15T04:37:55.785Z,100.00
2023-09-15T04:40:22.798Z,100.00
2023-09-15T04:42:49.315Z,100.00
2023-09-15T04:45:15.796Z,100.00
2023-09-15T04:47:42.375Z,100.00
2023-09-15T04:50:09.274Z,100.00
2023-09-15T04:52:35.758Z,100.00
2023-09-15T04:55:02.347Z,100.00
2023-09-15T04:57:28.819Z,100.00
2023-09-15T04:59:55.684Z,100.00
2023-09-15T05:02:24.607Z,100.00
2023-09-15T05:04:52.448Z,100.00
2023-09-15T05:07:19.050Z,100.00
2023-09-15T05:09:46.816Z,100.00
2023-09-15T05:12:16.446Z,100.00
2023-09-15T05:14:43.236Z,100.00
2023-09-15T05:17:09.796Z,100.00
2023-09-15T05:19:36.242Z,100.00
2023-09-15T05:22:02.885Z,100.00
2023-09-15T05:24:29.290Z,100.00
2023-09-15T05:26:55.696Z,100.00
2023-09-15T05:29:22.151Z,100.00
2023-09-15T05:31:48.741Z,100.00
2023-09-15T05:34:15.286Z,100.00
2023-09-15T05:36:41.953Z,100.00
2023-09-15T05:39:08.607Z,100.00
2023-09-15T05:41:35.186Z,100.00
2023-09-15T05:44:01.694Z,100.00
2023-09-15T05:46:29.078Z,100.00
2023-09-15T05:48:55.689Z,100.00
2023-09-15T05:51:22.181Z,100.00
2023-09-15T05:53:48.602Z,100.00
2023-09-15T05:56:15.270Z,100.00
2023-09-15T05:58:42.705Z,100.00
2023-09-15T06:01:09.263Z,100.00
2023-09-15T06:03:37.628Z,100.00
2023-09-15T06:06:04.467Z,100.00
2023-09-15T06:08:31.090Z,100.00
2023-09-15T06:10:57.984Z,100.00
2023-09-15T06:13:24.541Z,100.00
2023-09-15T06:15:51.078Z,100.00
2023-09-15T06:18:17.548Z,100.00
2023-09-15T06:20:44.091Z,100.00
2023-09-15T06:23:10.495Z,100.00
2023-09-15T06:25:37.019Z,100.00
2023-09-15T06:28:19.115Z,100.00
2023-09-15T06:30:47.691Z,100.00
2023-09-15T06:33:14.185Z,100.00
2023-09-15T06:35:41.081Z,100.00
2023-09-15T06:38:08.072Z,100.00
2023-09-15T06:40:36.595Z,100.00
2023-09-15T06:43:08.244Z,100.00
2023-09-15T06:45:35.640Z,100.00
2023-09-15T06:48:03.344Z,100.00
2023-09-15T06:50:29.993Z,100.00
2023-09-15T06:52:56.447Z,100.00
2023-09-15T06:55:23.020Z,100.00
2023-09-15T06:57:49.529Z,100.00
2023-09-15T07:00:16.427Z,100.00
2023-09-15T07:02:42.939Z,100.00
2023-09-15T07:05:09.618Z,100.00
2023-09-15T07:07:36.141Z,100.00
2023-09-15T07:10:02.851Z,100.00
2023-09-15T07:12:29.616Z,100.00
2023-09-15T07:14:56.053Z,100.00
2023-09-15T07:17:22.660Z,100.00
2023-09-15T07:19:53.134Z,100.00
2023-09-15T07:22:21.692Z,100.00
2023-09-15T07:24:48.050Z,100.00
2023-09-15T07:27:14.517Z,100.00
2023-09-15T07:29:40.999Z,100.00
2023-09-15T07:32:08.179Z,100.00
2023-09-15T07:34:34.902Z,100.00
2023-09-15T07:37:01.718Z,100.00
2023-09-15T07:39:30.815Z,100.00
2023-09-15T07:41:57.331Z,100.00
2023-09-15T07:44:23.889Z,100.00
2023-09-15T07:46:50.638Z,100.00
2023-09-15T07:49:17.189Z,100.00
2023-09-15T07:51:44.296Z,100.00
2023-09-15T07:54:10.804Z,100.00
2023-09-15T07:56:38.089Z,100.00
2023-09-15T07:59:04.741Z,100.00
2023-09-15T08:01:31.398Z,100.00
2023-09-15T08:03:58.209Z,100.00
2023-09-15T08:06:27.345Z,100.00
2023-09-15T08:08:54.187Z,100.00
2023-09-15T08:11:21.126Z,100.00
2023-09-15T08:13:47.927Z,100.00
2023-09-15T08:16:15.031Z,100.00
2023-09-15T08:18:41.757Z,100.00
2023-09-15T08:21:08.329Z,100.00
2023-09-15T08:23:35.756Z,100.00
2023-09-15T08:26:02.528Z,100.00
2023-09-15T08:28:29.206Z,100.00
2023-09-15T08:30:55.915Z,100.00
2023-09-15T08:33:22.388Z,100.00
2023-09-15T08:35:48.920Z,100.00
2023-09-15T08:38:15.443Z,100.00
2023-09-15T08:40:51.329Z,100.00
2023-09-15T08:43:18.066Z,100.00
2023-09-15T08:45:49.012Z,100.00
2023-09-15T08:48:24.932Z,100.00
2023-09-15T08:50:53.457Z,100.00
2023-09-15T08:53:20.841Z,100.00
2023-09-15T08:55:47.818Z,100.00
2023-09-15T08:58:15.376Z,100.00
2023-09-15T09:00:43.201Z,100.00
2023-09-15T09:03:14.016Z,100.00
2023-09-15T09:05:48.029Z,100.00
2023-09-15T09:08:15.141Z,100.00
2023-09-15T09:10:42.562Z,100.00
2023-09-15T09:13:09.396Z,100.00
2023-09-15T09:15:36.861Z,100.00
2023-09-15T09:18:17.532Z,100.00
2023-09-15T09:20:44.569Z,100.00
2023-09-15T09:23:11.495Z,100.00
2023-09-15T09:25:40.773Z,100.00
2023-09-15T09:28:07.435Z,100.00
2023-09-15T09:30:34.214Z,100.00
2023-09-15T09:33:00.692Z,100.00
2023-09-15T09:35:27.612Z,98.38
2023-09-15T09:37:56.221Z,95.39
2023-09-15T09:40:23.504Z,94.25
2023-09-15T09:42:50.958Z,93.10
2023-09-15T09:45:18.529Z,96.18
2023-09-15T09:47:45.263Z,90.60
2023-09-15T09:50:12.494Z,92.58
2023-09-15T09:52:40.492Z,84.39
2023-09-15T09:55:09.572Z,83.72
2023-09-15T09:57:39.295Z,81.25
2023-09-15T10:00:11.007Z,77.80
2023-09-15T10:02:38.896Z,76.41
2023-09-15T10:05:05.676Z,74.66
2023-09-15T10:07:32.221Z,72.72
2023-09-15T10:09:59.608Z,70.77
2023-09-15T10:12:26.867Z,66.48
2023-09-15T10:14:53.737Z,62.96
2023-09-15T10:17:20.967Z,63.70
2023-09-15T10:19:49.499Z,66.88
2023-09-15T10:22:17.447Z,63.24
2023-09-15T10:24:48.776Z,61.05
2023-09-15T10:27:15.866Z,64.84
2023-09-15T10:29:46.130Z,59.39
2023-09-15T10:32:19.374Z,61.84
2023-09-15T10:34:47.020Z,61.58
2023-09-15T10:37:14.187Z,61.89
2023-09-15T10:39:42.978Z,58.01
2023-09-15T10:42:11.631Z,59.38
2023-09-15T10:44:38.095Z,56.88
2023-09-15T10:47:16.948Z,57.41
2023-09-15T10:49:50.201Z,57.40
2023-09-15T10:52:16.706Z,55.57
2023-09-15T10:54:43.139Z,55.92
2023-09-15T10:57:10.339Z,54.81
2023-09-15T10:59:37.362Z,55.19
2023-09-15T11:02:04.279Z,54.32
2023-09-15T11:04:30.954Z,53.22
2023-09-15T11:06:58.110Z,52.92
2023-09-15T11:09:26.333Z,52.45
2023-09-15T11:11:53.390Z,52.56
2023-09-15T11:14:22.488Z,52.17
2023-09-15T11:16:51.057Z,52.68
2023-09-15T11:19:23.810Z,51.59
2023-09-15T11:21:50.731Z,49.65
2023-09-15T11:24:17.242Z,53.10
2023-09-15T11:26:48.674Z,50.00
2023-09-15T11:29:16.331Z,51.07
2023-09-15T11:31:44.092Z,50.07
2023-09-15T11:34:14.226Z,50.57
2023-09-15T11:36:42.318Z,51.86
2023-09-15T11:39:12.275Z,49.88
2023-09-15T11:41:55.820Z,48.46
2023-09-15T11:44:27.058Z,49.76
2023-09-15T11:46:56.738Z,49.90
2023-09-15T11:49:24.924Z,49.17
2023-09-15T11:51:52.076Z,51.58
2023-09-15T11:54:19.406Z,49.57
2023-09-15T11:56:47.851Z,49.06
2023-09-15T11:59:16.319Z,48.48
2023-09-15T12:01:43.585Z,48.46
2023-09-15T12:04:13.138Z,47.98
2023-09-15T12:06:42.059Z,48.56
2023-09-15T12:09:11.930Z,48.87
2023-09-15T12:11:47.903Z,48.63
2023-09-15T12:14:15.150Z,47.60
2023-09-15T12:16:45.674Z,49.62
2023-09-15T12:19:12.936Z,47.10
2023-09-15T12:21:51.595Z,47.70
2023-09-15T12:24:18.155Z,47.77
2023-09-15T12:26:44.599Z,48.99
2023-09-15T12:29:11.678Z,48.85
2023-09-15T12:31:45.669Z,48.56
2023-09-15T12:34:21.098Z,47.56
2023-09-15T12:36:49.262Z,48.08
2023-09-15T12:39:16.155Z,46.96
2023-09-15T12:41:44.295Z,45.84
2023-09-15T12:44:12.205Z,46.60
2023-09-15T12:46:38.788Z,47.02
2023-09-15T12:49:05.464Z,47.24
2023-09-15T12:51:32.007Z,48.26
2023-09-15T12:53:58.589Z,48.63
2023-09-15T12:56:25.083Z,48.04
2023-09-15T12:58:51.511Z,47.04
2023-09-15T13:01:18.039Z,48.53
2023-09-15T13:03:44.784Z,47.52
2023-09-15T13:06:11.635Z,48.50
2023-09-15T13:08:38.118Z,49.88
2023-09-15T13:11:04.573Z,47.82
2023-09-15T13:13:30.994Z,46.81
2023-09-15T13:15:57.460Z,47.03
2023-09-15T13:18:25.160Z,47.02
2023-09-15T13:20:51.586Z,47.34
2023-09-15T13:23:18.033Z,47.01
2023-09-15T13:25:44.523Z,46.83
2023-09-15T13:28:12.155Z,47.53
2023-09-15T13:30:41.262Z,47.18
2023-09-15T13:33:08.038Z,47.01
2023-09-15T13:35:34.619Z,47.13
2023-09-15T13:38:01.539Z,47.32
2023-09-15T13:40:29.702Z,47.62
2023-09-15T13:42:58.055Z,48.83
2023-09-15T13:45:24.625Z,48.38
2023-09-15T13:47:51.103Z,47.47
2023-09-15T13:50:17.758Z,49.41
2023-09-15T13:52:44.177Z,46.87
2023-09-15T13:55:10.811Z,46.93
2023-09-15T13:57:39.577Z,47.57
2023-09-15T14:00:07.360Z,47.45
2023-09-15T14:02:35.193Z,46.54
2023-09-15T14:05:03.603Z,47.51
2023-09-15T14:07:30.080Z,46.90
2023-09-15T14:09:56.533Z,47.64
2023-09-15T14:12:23.053Z,47.31
2023-09-15T14:14:49.568Z,48.44
2023-09-15T14:17:16.074Z,48.91
2023-09-15T14:19:42.653Z,47.87
2023-09-15T14:22:09.285Z,48.83
2023-09-15T14:24:36.941Z,49.33
2023-09-15T14:27:04.273Z,48.89
2023-09-15T14:29:31.336Z,49.22
2023-09-15T14:32:01.858Z,48.90
2023-09-15T14:34:28.900Z,50.28
2023-09-15T14:36:56.071Z,49.28
2023-09-15T14:39:22.739Z,49.31
2023-09-15T14:41:49.729Z,49.99
2023-09-15T14:44:21.054Z,49.52
2023-09-15T14:46:48.629Z,49.12
2023-09-15T14:49:15.739Z,49.04
2023-09-15T14:51:42.790Z,49.62
2023-09-15T14:54:09.570Z,49.76
2023-09-15T14:56:36.498Z,49.98
2023-09-15T14:59:03.411Z,50.43
2023-09-15T15:01:30.065Z,49.80
2023-09-15T15:03:56.597Z,50.03
2023-09-15T15:06:23.158Z,49.90
2023-09-15T15:08:50.214Z,50.08
2023-09-15T15:11:16.867Z,48.83
2023-09-15T15:13:43.329Z,50.62
2023-09-15T15:16:12.277Z,50.02
2023-09-15T15:18:39.058Z,51.04
2023-09-15T15:21:05.536Z,51.27
2023-09-15T15:23:32.007Z,50.03
2023-09-15T15:26:05.099Z,50.60
2023-09-15T15:28:32.136Z,50.37
2023-09-15T15:30:58.833Z,50.52
2023-09-15T15:33:25.923Z,50.30
2023-09-15T15:36:02.348Z,50.59
2023-09-15T15:38:28.902Z,50.92
2023-09-15T15:41:04.164Z,51.18
2023-09-15T15:43:32.806Z,51.97
2023-09-15T15:46:04.731Z,50.27
2023-09-15T15:48:33.823Z,50.51
2023-09-15T15:51:03.896Z,51.86
2023-09-15T15:53:31.082Z,51.17
2023-09-15T15:55:57.710Z,51.90
2023-09-15T15:58:24.246Z,52.07
2023-09-15T16:00:50.718Z,50.84
2023-09-15T16:03:17.564Z,52.86
2023-09-15T16:05:44.230Z,52.24
2023-09-15T16:08:10.947Z,52.79
2023-09-15T16:10:37.915Z,53.62
2023-09-15T16:13:04.933Z,53.87
2023-09-15T16:15:31.419Z,54.18
2023-09-15T16:18:16.188Z,54.18
2023-09-15T16:20:53.849Z,54.72
2023-09-15T16:23:20.257Z,54.28
2023-09-15T16:25:48.463Z,54.77
2023-09-15T16:28:14.912Z,55.66
2023-09-15T16:30:43.163Z,56.01
2023-09-15T16:33:11.059Z,56.42
2023-09-15T16:35:38.240Z,57.58
2023-09-15T16:38:05.375Z,57.48
2023-09-15T16:40:32.104Z,58.39
2023-09-15T16:42:58.817Z,57.98
2023-09-15T16:45:25.531Z,58.40
2023-09-15T16:47:52.652Z,58.83
2023-09-15T16:50:19.892Z,59.20
2023-09-15T16:52:47.156Z,58.93
2023-09-15T16:55:15.149Z,59.21
2023-09-15T16:57:41.863Z,60.46
2023-09-15T17:00:09.519Z,60.65
2023-09-15T17:02:37.345Z,60.85
2023-09-15T17:05:04.348Z,61.75
2023-09-15T17:07:30.729Z,63.04
2023-09-15T17:09:57.253Z,62.99
2023-09-15T17:12:25.230Z,65.14
2023-09-15T17:14:52.690Z,66.92
2023-09-15T17:17:19.113Z,69.18
2023-09-15T17:19:45.747Z,70.83
2023-09-15T17:22:12.874Z,73.02
2023-09-15T17:24:42.655Z,75.00
2023-09-15T17:27:12.976Z,74.40
2023-09-15T17:29:39.456Z,75.18
2023-09-15T17:32:06.652Z,77.47
2023-09-15T17:34:33.191Z,78.83
2023-09-15T17:36:59.605Z,78.25
2023-09-15T17:39:28.071Z,76.95
2023-09-15T17:41:56.235Z,76.93
2023-09-15T17:44:23.066Z,77.43
2023-09-15T17:46:49.499Z,77.38
2023-09-15T17:49:15.966Z,78.22
2023-09-15T17:51:42.489Z,79.71
2023-09-15T17:54:11.590Z,80.78
2023-09-15T17:56:38.094Z,80.91
2023-09-15T17:59:04.782Z,81.09
2023-09-15T18:01:31.462Z,82.30
2023-09-15T18:03:58.035Z,82.98
2023-09-15T18:06:24.560Z,83.69
2023-09-15T18:08:51.367Z,85.14
2023-09-15T18:11:18.335Z,86.19
2023-09-15T18:13:46.894Z,86.87
2023-09-15T18:16:17.591Z,86.60
2023-09-15T18:18:46.032Z,87.61
2023-09-15T18:21:14.032Z,87.05
2023-09-15T18:23:40.569Z,87.83
2023-09-15T18:26:07.210Z,87.10
2023-09-15T18:28:34.504Z,88.46
2023-09-15T18:31:01.139Z,88.55
2023-09-15T18:33:28.425Z,89.52
2023-09-15T18:35:55.093Z,89.82
2023-09-15T18:38:21.536Z,90.68
2023-09-15T18:40:48.157Z,91.19
2023-09-15T18:43:14.561Z,91.28
2023-09-15T18:45:43.907Z,91.70
2023-09-15T18:48:10.533Z,92.60
2023-09-15T18:50:38.084Z,93.88
2023-09-15T18:53:05.866Z,94.76
2023-09-15T18:55:32.311Z,95.46
2023-09-15T18:58:00.856Z,95.19
2023-09-15T19:00:27.879Z,95.85
2023-09-15T19:02:55.669Z,96.26
2023-09-15T19:05:22.198Z,97.40
2023-09-15T19:07:48.676Z,98.55
2023-09-15T19:10:15.507Z,97.80
2023-09-15T19:12:41.990Z,98.50
2023-09-15T19:15:08.920Z,100.00
2023-09-15T19:17:35.391Z,100.00
2023-09-15T19:20:02.813Z,100.00
2023-09-15T19:22:29.534Z,100.00
2023-09-15T19:24:56.162Z,100.00
2023-09-15T19:27:22.628Z,100.00
2023-09-15T19:29:49.244Z,100.00
2023-09-15T19:32:15.983Z,100.00
2023-09-15T19:34:44.513Z,100.00
2023-09-15T19:37:11.175Z,100.00
2023-09-15T19:39:38.768Z,100.00
2023-09-15T19:42:05.492Z,100.00
2023-09-15T19:44:32.078Z,100.00
2023-09-15T19:46:58.670Z,100.00
2023-09-15T19:49:25.125Z,100.00
2023-09-15T19:51:51.547Z,100.00
2023-09-15T19:54:18.073Z,100.00
2023-09-15T19:56:44.524Z,100.00
2023-09-15T19:59:10.982Z,100.00
2023-09-15T20:01:37.717Z,100.00
2023-09-15T20:04:04.321Z,100.00
2023-09-15T20:06:30.885Z,100.00
2023-09-15T20:09:00.003Z,100.00
2023-09-15T20:11:26.759Z,100.00
2023-09-15T20:13:53.223Z,100.00
2023-09-15T20:16:19.860Z,100.00
2023-09-15T20:18:46.662Z,100.00
2023-09-15T20:21:13.300Z,100.00
2023-09-15T20:23:40.088Z,100.00
2023-09-15T20:26:06.634Z,100.00
2023-09-15T20:28:33.493Z,100.00
2023-09-15T20:31:00.094Z,100.00
2023-09-15T20:33:26.860Z,100.00
2023-09-15T20:35:53.376Z,100.00
2023-09-15T20:38:19.847Z,100.00
2023-09-15T20:40:46.275Z,100.00
2023-09-15T20:43:14.055Z,100.00
2023-09-15T20:45:40.664Z,100.00
2023-09-15T20:48:07.425Z,100.00
2023-09-15T20:50:33.940Z,100.00
2023-09-15T20:53:00.469Z,100.00
2023-09-15T20:55:28.127Z,100.00
2023-09-15T20:57:54.668Z,100.00
2023-09-15T21:00:21.326Z,100.00
2023-09-15T21:02:48.388Z,100.00
2023-09-15T21:05:15.627Z,100.00
2023-09-15T21:07:43.260Z,100.00
2023-09-15T21:10:10.651Z,100.00
2023-09-15T21:12:37.993Z,100.00
2023-09-15T21:15:05.434Z,100.00
2023-09-15T21:17:32.853Z,100.00
2023-09-15T21:19:59.648Z,100.00
2023-09-15T21:22:26.449Z,100.00
2023-09-15T21:24:52.893Z,100.00
2023-09-15T21:27:19.484Z,100.00
2023-09-15T21:29:47.919Z,100.00
2023-09-15T21:32:15.619Z,100.00
2023-09-15T21:34:42.735Z,100.00
2023-09-15T21:37:09.303Z,100.00
2023-09-15T21:39:35.840Z,100.00
2023-09-15T21:42:03.875Z,100.00
2023-09-15T21:44:30.354Z,100.00
2023-09-15T21:46:56.868Z,100.00
2023-09-15T21:49:23.281Z,100.00
2023-09-15T21:51:49.849Z,100.00
2023-09-15T21:54:16.361Z,100.00
2023-09-15T21:56:43.170Z,100.00
2023-09-15T21:59:10.117Z,100.00
2023-09-15T22:01:36.570Z,100.00
2023-09-15T22:04:03.460Z,100.00
2023-09-15T22:06:29.977Z,100.00
2023-09-15T22:08:57.523Z,100.00
2023-09-15T22:11:24.504Z,100.00
2023-09-15T22:13:50.965Z,100.00
2023-09-15T22:16:17.496Z,100.00
2023-09-15T22:18:45.357Z,100.00
2023-09-15T22:21:12.029Z,100.00
2023-09-15T22:23:38.547Z,100.00
2023-09-15T22:26:04.950Z,100.00
2023-09-15T22:28:31.641Z,100.00
2023-09-15T22:30:58.060Z,100.00
2023-09-15T22:33:24.479Z,100.00
2023-09-15T22:35:51.467Z,100.00
2023-09-15T22:38:18.553Z,100.00
2023-09-15T22:40:45.103Z,100.00
2023-09-15T22:43:11.600Z,100.00
2023-09-15T22:45:38.531Z,100.00
2023-09-15T22:48:06.926Z,100.00
2023-09-15T22:50:36.388Z,100.00
2023-09-15T22:53:04.213Z,100.00
2023-09-15T22:55:30.674Z,100.00
2023-09-15T22:57:57.547Z,100.00
2023-09-15T23:00:24.083Z,100.00
2023-09-15T23:02:51.442Z,100.00
2023-09-15T23:05:18.672Z,100.00
2023-09-15T23:07:45.289Z,100.00
2023-09-15T23:10:12.132Z,100.00
2023-09-15T23:12:41.952Z,100.00
2023-09-15T23:15:09.277Z,100.00
2023-09-15T23:17:35.901Z,100.00
2023-09-15T23:20:04.234Z,100.00
2023-09-15T23:22:31.386Z,100.00
2023-09-15T23:24:58.063Z,100.00
2023-09-15T23:27:24.694Z,100.00
2023-09-15T23:29:52.298Z,100.00
2023-09-15T23:32:18.864Z,100.00
2023-09-15T23:34:45.334Z,100.00
2023-09-15T23:37:12.921Z,100.00
2023-09-15T23:39:39.513Z,100.00
2023-09-15T23:42:06.123Z,100.00
2023-09-15T23:44:33.057Z,100.00
2023-09-15T23:46:59.581Z,100.00
2023-09-15T23:49:26.039Z,100.00
2023-09-15T23:51:52.609Z,100.00
2023-09-15T23:54:19.223Z,100.00
2023-09-15T23:56:46.399Z,100.00
2023-09-15T23:59:13.256Z,100.00
